Aviation Digital Data Service (ADDS)

Output produced by METARs form (1443 UTC 05 August 2021)
found at http://aviationweather.gov/metar/data/
 
METAR text: KCVH 051435Z AUTO 00000KT 3SM BR OVC004 14/13 A3004 RMK A01
Conditions at: KCVH (HOLLISTER MUNI , CA, US) observed 1435 UTC 05 August 2021
Temperature: 14.0°C (57°F)
Dewpoint: 13.0°C (55°F) [RH = 94%]
Pressure (altimeter): 30.04 inches Hg (1017.4 mb)
Winds: calm
Visibility: 3 miles ( 5 km)
Ceiling: 400 feet AGL
Clouds: overcast cloud deck at 400 feet AGL
Weather: BR  (mist)